sensor_id;sensor_type;location;lat;lon;timestamp;pressure;altitude;pressure_sealevel;temperature;humidity
52185;BME280;38160;52.876;18.778;2023-02-17T00:40:32;101096.66;;;3.73;100.00
52185;BME280;38160;52.876;18.778;2023-02-17T00:43:09;101104.77;;;3.77;100.00
52185;BME280;38160;52.876;18.778;2023-02-17T00:45:47;101103.02;;;3.79;100.00
52185;BME280;38160;52.876;18.778;2023-02-17T00:48:23;101100.99;;;3.78;100.00
52185;BME280;38160;52.876;18.778;2023-02-17T00:51:00;101096.33;;;3.78;100.00
52185;BME280;38160;52.876;18.778;2023-02-17T00:57:44;101085.95;;;3.79;100.00
52185;BME280;38160;52.876;18.778;2023-02-17T01:36:59;101052.52;;;3.65;100.00
52185;BME280;38160;52.876;18.778;2023-02-17T01:39:58;101042.93;;;3.65;100.00
52185;BME280;38160;52.876;18.778;2023-02-17T01:46:27;101019.27;;;3.65;100.00
52185;BME280;38160;52.876;18.778;2023-02-17T02:04:51;100991.35;;;3.77;100.00
52185;BME280;38160;52.876;18.778;2023-02-17T02:20:18;100980.94;;;3.78;100.00
52185;BME280;38160;52.876;18.778;2023-02-17T02:23:52;100979.73;;;3.78;100.00
52185;BME280;38160;52.876;18.778;2023-02-17T02:34:26;100974.65;;;3.77;100.00
52185;BME280;38160;52.876;18.778;2023-02-17T02:37:15;100965.45;;;3.76;100.00
52185;BME280;38160;52.876;18.778;2023-02-17T02:40:11;100966.65;;;3.82;100.00
52185;BME280;38160;52.876;18.778;2023-02-17T02:43:05;100968.16;;;3.83;100.00
52185;BME280;38160;52.876;18.778;2023-02-17T02:45:43;100963.29;;;3.84;100.00
52185;BME280;38160;52.876;18.778;2023-02-17T02:48:19;100962.03;;;3.88;100.00
52185;BME280;38160;52.876;18.778;2023-02-17T02:54:23;100954.44;;;3.88;100.00
52185;BME280;38160;52.876;18.778;2023-02-17T02:57:19;100947.52;;;3.90;100.00
52185;BME280;38160;52.876;18.778;2023-02-17T03:00:05;100948.81;;;3.94;100.00
52185;BME280;38160;52.876;18.778;2023-02-17T03:02:50;100944.52;;;3.94;100.00
52185;BME280;38160;52.876;18.778;2023-02-17T03:05:49;100949.56;;;3.94;100.00
52185;BME280;38160;52.876;18.778;2023-02-17T03:08:30;100951.65;;;3.94;100.00
52185;BME280;38160;52.876;18.778;2023-02-17T03:11:11;100950.24;;;3.94;100.00
52185;BME280;38160;52.876;18.778;2023-02-17T03:13:49;100950.17;;;3.98;100.00
52185;BME280;38160;52.876;18.778;2023-02-17T03:16:25;100951.56;;;3.96;100.00
52185;BME280;38160;52.876;18.778;2023-02-17T03:19:02;100948.10;;;3.92;100.00
52185;BME280;38160;52.876;18.778;2023-02-17T03:21:43;100939.42;;;3.91;100.00
52185;BME280;38160;52.876;18.778;2023-02-17T03:24:23;100939.46;;;3.93;100.00
52185;BME280;38160;52.876;18.778;2023-02-17T03:27:00;100937.89;;;3.92;100.00
52185;BME280;38160;52.876;18.778;2023-02-17T03:29:41;100935.02;;;3.93;100.00
52185;BME280;38160;52.876;18.778;2023-02-17T03:32:17;100939.06;;;3.91;100.00
52185;BME280;38160;52.876;18.778;2023-02-17T03:42:25;100936.18;;;3.84;100.00
52185;BME280;38160;52.876;18.778;2023-02-17T04:01:48;100918.58;;;3.82;100.00
52185;BME280;38160;52.876;18.778;2023-02-17T04:04:24;100913.67;;;3.83;100.00
52185;BME280;38160;52.876;18.778;2023-02-17T04:07:00;100906.51;;;3.86;100.00
52185;BME280;38160;52.876;18.778;2023-02-17T04:09:36;100911.85;;;3.89;100.00
52185;BME280;38160;52.876;18.778;2023-02-17T04:12:14;100902.48;;;3.90;100.00
52185;BME280;38160;52.876;18.778;2023-02-17T04:14:51;100901.34;;;3.91;100.00
52185;BME280;38160;52.876;18.778;2023-02-17T04:17:27;100897.95;;;3.91;100.00
52185;BME280;38160;52.876;18.778;2023-02-17T04:20:27;100895.64;;;3.91;100.00
52185;BME280;38160;52.876;18.778;2023-02-17T04:24:19;100893.73;;;3.90;100.00
52185;BME280;38160;52.876;18.778;2023-02-17T04:44:13;100871.07;;;3.89;100.00
52185;BME280;38160;52.876;18.778;2023-02-17T04:55:28;100854.91;;;3.91;100.00
52185;BME280;38160;52.876;18.778;2023-02-17T04:59:15;100844.06;;;3.86;100.00
52185;BME280;38160;52.876;18.778;2023-02-17T05:01:59;100847.63;;;3.88;100.00
52185;BME280;38160;52.876;18.778;2023-02-17T05:08:49;100841.11;;;3.87;100.00
52185;BME280;38160;52.876;18.778;2023-02-17T05:11:28;100840.16;;;3.88;100.00
52185;BME280;38160;52.876;18.778;2023-02-17T05:21:37;100845.38;;;3.87;100.00
52185;BME280;38160;52.876;18.778;2023-02-17T05:27:45;100839.05;;;3.91;100.00
52185;BME280;38160;52.876;18.778;2023-02-17T05:30:22;100838.90;;;3.93;100.00
52185;BME280;38160;52.876;18.778;2023-02-17T05:56:26;100833.18;;;3.88;100.00
52185;BME280;38160;52.876;18.778;2023-02-17T05:59:40;100824.12;;;3.91;100.00
52185;BME280;38160;52.876;18.778;2023-02-17T06:02:48;100822.04;;;3.92;100.00
52185;BME280;38160;52.876;18.778;2023-02-17T06:05:48;100825.71;;;3.96;100.00
52185;BME280;38160;52.876;18.778;2023-02-17T06:08:36;100822.02;;;3.98;100.00
52185;BME280;38160;52.876;18.778;2023-02-17T06:11:15;100822.14;;;3.98;100.00
52185;BME280;38160;52.876;18.778;2023-02-17T06:13:53;100822.17;;;4.00;100.00
52185;BME280;38160;52.876;18.778;2023-02-17T06:23:56;100816.34;;;4.04;100.00
52185;BME280;38160;52.876;18.778;2023-02-17T06:34:26;100809.86;;;4.05;100.00
52185;BME280;38160;52.876;18.778;2023-02-17T06:37:07;100805.94;;;4.07;100.00
52185;BME280;38160;52.876;18.778;2023-02-17T06:39:43;100809.76;;;4.09;100.00
52185;BME280;38160;52.876;18.778;2023-02-17T06:42:22;100809.42;;;4.11;100.00
52185;BME280;38160;52.876;18.778;2023-02-17T06:44:59;100810.89;;;4.12;100.00
52185;BME280;38160;52.876;18.778;2023-02-17T06:47:40;100814.34;;;4.14;100.00
52185;BME280;38160;52.876;18.778;2023-02-17T06:50:16;100813.64;;;4.14;100.00
52185;BME280;38160;52.876;18.778;2023-02-17T06:52:53;100814.32;;;4.14;100.00
52185;BME280;38160;52.876;18.778;2023-02-17T06:55:30;100815.60;;;4.16;100.00
52185;BME280;38160;52.876;18.778;2023-02-17T06:58:08;100813.17;;;4.18;100.00
52185;BME280;38160;52.876;18.778;2023-02-17T07:00:45;100808.04;;;4.19;100.00
52185;BME280;38160;52.876;18.778;2023-02-17T07:03:22;100806.54;;;4.22;100.00
52185;BME280;38160;52.876;18.778;2023-02-17T07:06:01;100806.23;;;4.24;100.00
52185;BME280;38160;52.876;18.778;2023-02-17T07:08:37;100807.17;;;4.26;100.00
52185;BME280;38160;52.876;18.778;2023-02-17T07:11:14;100804.06;;;4.27;100.00
52185;BME280;38160;52.876;18.778;2023-02-17T07:13:51;100805.05;;;4.30;100.00
52185;BME280;38160;52.876;18.778;2023-02-17T07:16:29;100801.78;;;4.36;100.00
52185;BME280;38160;52.876;18.778;2023-02-17T07:19:06;100797.34;;;4.42;100.00
52185;BME280;38160;52.876;18.778;2023-02-17T07:21:44;100803.38;;;4.45;100.00
52185;BME280;38160;52.876;18.778;2023-02-17T07:24:21;100805.46;;;4.48;100.00
52185;BME280;38160;52.876;18.778;2023-02-17T07:26:58;100805.10;;;4.50;100.00
52185;BME280;38160;52.876;18.778;2023-02-17T07:29:34;100805.92;;;4.51;100.00
52185;BME280;38160;52.876;18.778;2023-02-17T07:32:10;100804.95;;;4.54;100.00
52185;BME280;38160;52.876;18.778;2023-02-17T07:34:46;100804.02;;;4.57;100.00
52185;BME280;38160;52.876;18.778;2023-02-17T07:37:22;100802.39;;;4.60;100.00
52185;BME280;38160;52.876;18.778;2023-02-17T07:39:59;100799.98;;;4.61;100.00
52185;BME280;38160;52.876;18.778;2023-02-17T07:42:39;100798.08;;;4.65;100.00
52185;BME280;38160;52.876;18.778;2023-02-17T07:45:16;100794.15;;;4.67;100.00
52185;BME280;38160;52.876;18.778;2023-02-17T07:48:01;100794.66;;;4.69;100.00
52185;BME280;38160;52.876;18.778;2023-02-17T07:50:41;100795.08;;;4.68;100.00
52185;BME280;38160;52.876;18.778;2023-02-17T07:53:17;100791.88;;;4.68;100.00
52185;BME280;38160;52.876;18.778;2023-02-17T07:55:53;100785.03;;;4.71;100.00
52185;BME280;38160;52.876;18.778;2023-02-17T07:58:32;100783.46;;;4.73;100.00
52185;BME280;38160;52.876;18.778;2023-02-17T08:01:37;100785.55;;;4.74;100.00
52185;BME280;38160;52.876;18.778;2023-02-17T08:04:25;100789.69;;;4.78;100.00
52185;BME280;38160;52.876;18.778;2023-02-17T08:07:03;100786.24;;;4.81;100.00
52185;BME280;38160;52.876;18.778;2023-02-17T08:09:44;100787.58;;;4.82;100.00
52185;BME280;38160;52.876;18.778;2023-02-17T08:12:44;100787.73;;;4.83;100.00
52185;BME280;38160;52.876;18.778;2023-02-17T08:16:06;100785.80;;;4.82;100.00
52185;BME280;38160;52.876;18.778;2023-02-17T08:30:41;100761.16;;;4.83;100.00
52185;BME280;38160;52.876;18.778;2023-02-17T08:34:11;100751.41;;;4.84;100.00
52185;BME280;38160;52.876;18.778;2023-02-17T08:37:45;100750.20;;;4.90;100.00
52185;BME280;38160;52.876;18.778;2023-02-17T08:40:34;100740.40;;;4.94;100.00
52185;BME280;38160;52.876;18.778;2023-02-17T08:43:10;100736.98;;;4.97;100.00
52185;BME280;38160;52.876;18.778;2023-02-17T08:46:24;100732.36;;;4.99;100.00
52185;BME280;38160;52.876;18.778;2023-02-17T09:04:38;100696.95;;;5.30;100.00
52185;BME280;38160;52.876;18.778;2023-02-17T09:07:15;100693.10;;;5.40;100.00
52185;BME280;38160;52.876;18.778;2023-02-17T09:09:51;100687.62;;;5.52;100.00
52185;BME280;38160;52.876;18.778;2023-02-17T09:12:38;100682.48;;;5.64;100.00
52185;BME280;38160;52.876;18.778;2023-02-17T09:15:39;100684.77;;;5.77;100.00
52185;BME280;38160;52.876;18.778;2023-02-17T09:18:22;100680.62;;;5.82;100.00
52185;BME280;38160;52.876;18.778;2023-02-17T09:21:49;100676.38;;;5.87;100.00
52185;BME280;38160;52.876;18.778;2023-02-17T09:24:34;100664.73;;;5.90;100.00
52185;BME280;38160;52.876;18.778;2023-02-17T09:27:15;100667.54;;;5.95;100.00
52185;BME280;38160;52.876;18.778;2023-02-17T09:29:55;100666.48;;;5.97;100.00
52185;BME280;38160;52.876;18.778;2023-02-17T10:09:20;100636.33;;;5.90;100.00
52185;BME280;38160;52.876;18.778;2023-02-17T10:12:02;100631.17;;;5.90;100.00
52185;BME280;38160;52.876;18.778;2023-02-17T10:14:45;100621.57;;;5.92;100.00
52185;BME280;38160;52.876;18.778;2023-02-17T10:17:25;100611.80;;;5.95;100.00
52185;BME280;38160;52.876;18.778;2023-02-17T10:20:10;100607.64;;;6.00;100.00
52185;BME280;38160;52.876;18.778;2023-02-17T10:22:53;100614.20;;;6.03;100.00
52185;BME280;38160;52.876;18.778;2023-02-17T10:25:52;100614.71;;;6.03;100.00
52185;BME280;38160;52.876;18.778;2023-02-17T10:31:45;100607.91;;;5.99;100.00
52185;BME280;38160;52.876;18.778;2023-02-17T10:34:36;100595.65;;;5.98;100.00
52185;BME280;38160;52.876;18.778;2023-02-17T11:10:21;100506.67;;;6.34;100.00
52185;BME280;38160;52.876;18.778;2023-02-17T11:27:37;100449.47;;;6.48;100.00
52185;BME280;38160;52.876;18.778;2023-02-17T11:30:17;100436.90;;;6.53;100.00
52185;BME280;38160;52.876;18.778;2023-02-17T11:32:54;100433.48;;;6.55;100.00
52185;BME280;38160;52.876;18.778;2023-02-17T11:35:46;100429.92;;;6.55;100.00
52185;BME280;38160;52.876;18.778;2023-02-17T11:38:26;100432.17;;;6.59;100.00
52185;BME280;38160;52.876;18.778;2023-02-17T11:41:04;100421.48;;;6.61;100.00
52185;BME280;38160;52.876;18.778;2023-02-17T11:43:52;100405.82;;;6.58;100.00
52185;BME280;38160;52.876;18.778;2023-02-17T11:46:34;100400.74;;;6.59;100.00
52185;BME280;38160;52.876;18.778;2023-02-17T11:49:44;100393.83;;;6.60;100.00
52185;BME280;38160;52.876;18.778;2023-02-17T11:52:56;100390.63;;;6.60;100.00
52185;BME280;38160;52.876;18.778;2023-02-17T11:55:53;100387.15;;;6.59;100.00
52185;BME280;38160;52.876;18.778;2023-02-17T12:01:45;100380.05;;;6.60;100.00
52185;BME280;38160;52.876;18.778;2023-02-17T12:04:27;100375.55;;;6.63;100.00
52185;BME280;38160;52.876;18.778;2023-02-17T12:07:44;100367.07;;;6.62;100.00
52185;BME280;38160;52.876;18.778;2023-02-17T12:10:35;100359.21;;;6.61;100.00
52185;BME280;38160;52.876;18.778;2023-02-17T12:13:28;100353.47;;;6.62;100.00
52185;BME280;38160;52.876;18.778;2023-02-17T12:16:20;100343.80;;;6.62;100.00
52185;BME280;38160;52.876;18.778;2023-02-17T12:19:06;100339.46;;;6.63;100.00
52185;BME280;38160;52.876;18.778;2023-02-17T12:22:21;100332.04;;;6.67;100.00
52185;BME280;38160;52.876;18.778;2023-02-17T12:25:50;100325.48;;;6.70;100.00
52185;BME280;38160;52.876;18.778;2023-02-17T12:28:50;100317.09;;;6.74;100.00
52185;BME280;38160;52.876;18.778;2023-02-17T12:31:58;100314.88;;;6.75;100.00
52185;BME280;38160;52.876;18.778;2023-02-17T12:34:41;100306.35;;;6.74;100.00
52185;BME280;38160;52.876;18.778;2023-02-17T12:37:22;100302.27;;;6.74;100.00
52185;BME280;38160;52.876;18.778;2023-02-17T12:40:02;100296.80;;;6.71;100.00
52185;BME280;38160;52.876;18.778;2023-02-17T12:42:45;100293.00;;;6.68;100.00
52185;BME280;38160;52.876;18.778;2023-02-17T12:45:32;100292.52;;;6.65;100.00
52185;BME280;38160;52.876;18.778;2023-02-17T12:48:13;100284.34;;;6.65;100.00
52185;BME280;38160;52.876;18.778;2023-02-17T12:50:58;100281.78;;;6.64;100.00
52185;BME280;38160;52.876;18.778;2023-02-17T12:53:46;100274.84;;;6.63;100.00
52185;BME280;38160;52.876;18.778;2023-02-17T12:57:00;100259.57;;;6.62;100.00
52185;BME280;38160;52.876;18.778;2023-02-17T12:59:41;100256.11;;;6.61;100.00
52185;BME280;38160;52.876;18.778;2023-02-17T13:02:20;100250.89;;;6.61;100.00
52185;BME280;38160;52.876;18.778;2023-02-17T13:05:00;100242.33;;;6.61;100.00
52185;BME280;38160;52.876;18.778;2023-02-17T13:07:44;100241.00;;;6.64;100.00
52185;BME280;38160;52.876;18.778;2023-02-17T13:10:33;100235.60;;;6.64;100.00
52185;BME280;38160;52.876;18.778;2023-02-17T13:13:12;100221.00;;;6.66;100.00
52185;BME280;38160;52.876;18.778;2023-02-17T13:15:59;100212.01;;;6.66;100.00
52185;BME280;38160;52.876;18.778;2023-02-17T13:18:37;100200.29;;;6.65;100.00
52185;BME280;38160;52.876;18.778;2023-02-17T13:21:25;100198.55;;;6.65;100.00
52185;BME280;38160;52.876;18.778;2023-02-17T13:24:04;100196.63;;;6.64;100.00
52185;BME280;38160;52.876;18.778;2023-02-17T13:26:43;100184.30;;;6.65;100.00
52185;BME280;38160;52.876;18.778;2023-02-17T13:29:31;100182.44;;;6.65;100.00
52185;BME280;38160;52.876;18.778;2023-02-17T13:32:11;100176.16;;;6.65;100.00
52185;BME280;38160;52.876;18.778;2023-02-17T13:35:03;100163.77;;;6.66;100.00
52185;BME280;38160;52.876;18.778;2023-02-17T13:37:42;100161.41;;;6.68;100.00
52185;BME280;38160;52.876;18.778;2023-02-17T13:40:36;100155.73;;;6.70;100.00
52185;BME280;38160;52.876;18.778;2023-02-17T13:43:18;100152.27;;;6.72;100.00
52185;BME280;38160;52.876;18.778;2023-02-17T13:45:58;100151.91;;;6.74;100.00
52185;BME280;38160;52.876;18.778;2023-02-17T13:48:36;100145.79;;;6.74;100.00
52185;BME280;38160;52.876;18.778;2023-02-17T13:51:28;100142.67;;;6.75;100.00
52185;BME280;38160;52.876;18.778;2023-02-17T13:54:10;100135.98;;;6.76;100.00
52185;BME280;38160;52.876;18.778;2023-02-17T13:56:51;100131.11;;;6.78;100.00
52185;BME280;38160;52.876;18.778;2023-02-17T13:59:29;100127.84;;;6.80;100.00
52185;BME280;38160;52.876;18.778;2023-02-17T14:02:19;100122.38;;;6.83;100.00
52185;BME280;38160;52.876;18.778;2023-02-17T14:04:56;100114.87;;;6.87;100.00
52185;BME280;38160;52.876;18.778;2023-02-17T14:07:35;100104.59;;;6.91;100.00
52185;BME280;38160;52.876;18.778;2023-02-17T14:10:19;100099.40;;;6.93;100.00
52185;BME280;38160;52.876;18.778;2023-02-17T14:12:57;100089.95;;;6.93;100.00
52185;BME280;38160;52.876;18.778;2023-02-17T14:15:34;100083.48;;;6.93;100.00
52185;BME280;38160;52.876;18.778;2023-02-17T14:22:40;100065.08;;;6.95;100.00
52185;BME280;38160;52.876;18.778;2023-02-17T14:25:28;100057.05;;;6.96;100.00
52185;BME280;38160;52.876;18.778;2023-02-17T14:28:23;100045.79;;;6.98;100.00
52185;BME280;38160;52.876;18.778;2023-02-17T14:35:25;100026.35;;;7.03;100.00
52185;BME280;38160;52.876;18.778;2023-02-17T14:38:20;100017.73;;;7.05;100.00
52185;BME280;38160;52.876;18.778;2023-02-17T14:40:57;100007.52;;;7.05;100.00
52185;BME280;38160;52.876;18.778;2023-02-17T14:43:34;100006.11;;;7.05;100.00
52185;BME280;38160;52.876;18.778;2023-02-17T14:46:11;99995.98;;;7.06;100.00
52185;BME280;38160;52.876;18.778;2023-02-17T14:48:48;99983.05;;;7.06;100.00
52185;BME280;38160;52.876;18.778;2023-02-17T14:51:30;99980.00;;;7.08;100.00
52185;BME280;38160;52.876;18.778;2023-02-17T14:54:14;99976.16;;;7.09;100.00
52185;BME280;38160;52.876;18.778;2023-02-17T14:56:56;99962.36;;;7.07;100.00
52185;BME280;38160;52.876;18.778;2023-02-17T14:59:35;99959.98;;;7.08;100.00
52185;BME280;38160;52.876;18.778;2023-02-17T15:02:15;99954.27;;;7.08;100.00
52185;BME280;38160;52.876;18.778;2023-02-17T15:04:52;99947.56;;;7.07;100.00
52185;BME280;38160;52.876;18.778;2023-02-17T15:07:30;99946.60;;;7.08;100.00
52185;BME280;38160;52.876;18.778;2023-02-17T15:10:30;99941.67;;;7.09;100.00
52185;BME280;38160;52.876;18.778;2023-02-17T15:13:21;99938.83;;;7.09;100.00
52185;BME280;38160;52.876;18.778;2023-02-17T15:16:43;99936.85;;;7.10;100.00
52185;BME280;38160;52.876;18.778;2023-02-17T15:19:52;99927.77;;;7.12;100.00
52185;BME280;38160;52.876;18.778;2023-02-17T15:22:42;99931.80;;;7.12;100.00
52185;BME280;38160;52.876;18.778;2023-02-17T15:25:49;99917.67;;;7.12;100.00
52185;BME280;38160;52.876;18.778;2023-02-17T15:28:28;99914.18;;;7.11;100.00
52185;BME280;38160;52.876;18.778;2023-02-17T15:31:19;99912.90;;;7.12;100.00
52185;BME280;38160;52.876;18.778;2023-02-17T15:34:29;99906.33;;;7.10;100.00
52185;BME280;38160;52.876;18.778;2023-02-17T15:37:36;99899.95;;;7.11;100.00
52185;BME280;38160;52.876;18.778;2023-02-17T15:40:16;99893.42;;;7.12;100.00
52185;BME280;38160;52.876;18.778;2023-02-17T15:43:10;99887.52;;;7.12;100.00
52185;BME280;38160;52.876;18.778;2023-02-17T16:00:09;99848.73;;;7.58;100.00
52185;BME280;38160;52.876;18.778;2023-02-17T16:02:51;99850.33;;;7.52;100.00
52185;BME280;38160;52.876;18.778;2023-02-17T16:05:48;99845.98;;;7.48;100.00
52185;BME280;38160;52.876;18.778;2023-02-17T16:08:23;99839.55;;;7.42;100.00
52185;BME280;38160;52.876;18.778;2023-02-17T16:10:58;99832.83;;;7.40;100.00
52185;BME280;38160;52.876;18.778;2023-02-17T16:13:37;99828.13;;;7.39;100.00
52185;BME280;38160;52.876;18.778;2023-02-17T16:16:14;99826.63;;;7.38;100.00
52185;BME280;38160;52.876;18.778;2023-02-17T16:18:49;99819.45;;;7.36;100.00
52185;BME280;38160;52.876;18.778;2023-02-17T16:21:23;99815.25;;;7.35;100.00
52185;BME280;38160;52.876;18.778;2023-02-17T16:23:57;99807.94;;;7.35;100.00
52185;BME280;38160;52.876;18.778;2023-02-17T16:26:34;99797.96;;;7.34;100.00
52185;BME280;38160;52.876;18.778;2023-02-17T16:36:33;99785.80;;;7.35;100.00
52185;BME280;38160;52.876;18.778;2023-02-17T16:44:20;99777.35;;;7.37;100.00
52185;BME280;38160;52.876;18.778;2023-02-17T16:47:21;99775.70;;;7.37;100.00
52185;BME280;38160;52.876;18.778;2023-02-17T16:49:59;99773.80;;;7.38;100.00
52185;BME280;38160;52.876;18.778;2023-02-17T16:52:57;99774.02;;;7.39;100.00
52185;BME280;38160;52.876;18.778;2023-02-17T16:59:44;99757.90;;;7.40;100.00
52185;BME280;38160;52.876;18.778;2023-02-17T17:05:57;99748.09;;;7.42;100.00
52185;BME280;38160;52.876;18.778;2023-02-17T17:08:35;99740.20;;;7.44;100.00
52185;BME280;38160;52.876;18.778;2023-02-17T17:11:14;99734.82;;;7.46;100.00
52185;BME280;38160;52.876;18.778;2023-02-17T17:13:54;99735.98;;;7.47;100.00
52185;BME280;38160;52.876;18.778;2023-02-17T17:16:32;99731.05;;;7.48;100.00
52185;BME280;38160;52.876;18.778;2023-02-17T17:19:11;99731.21;;;7.48;100.00
52185;BME280;38160;52.876;18.778;2023-02-17T17:21:47;99726.46;;;7.49;100.00
52185;BME280;38160;52.876;18.778;2023-02-17T17:24:24;99713.27;;;7.50;100.00
52185;BME280;38160;52.876;18.778;2023-02-17T17:27:01;99703.67;;;7.51;100.00
52185;BME280;38160;52.876;18.778;2023-02-17T17:29:37;99706.77;;;7.52;100.00
52185;BME280;38160;52.876;18.778;2023-02-17T17:32:13;99702.64;;;7.54;100.00
52185;BME280;38160;52.876;18.778;2023-02-17T17:34:49;99696.94;;;7.55;100.00
52185;BME280;38160;52.876;18.778;2023-02-17T17:37:26;99695.95;;;7.58;100.00
52185;BME280;38160;52.876;18.778;2023-02-17T17:40:02;99693.38;;;7.60;100.00
52185;BME280;38160;52.876;18.778;2023-02-17T17:43:13;99686.95;;;7.61;100.00
52185;BME280;38160;52.876;18.778;2023-02-17T17:45:56;99685.67;;;7.63;100.00
52185;BME280;38160;52.876;18.778;2023-02-17T17:48:32;99677.63;;;7.67;100.00
52185;BME280;38160;52.876;18.778;2023-02-17T17:51:12;99684.35;;;7.77;100.00
52185;BME280;38160;52.876;18.778;2023-02-17T17:53:51;99678.90;;;7.89;100.00
52185;BME280;38160;52.876;18.778;2023-02-17T17:56:59;99679.94;;;7.99;100.00
52185;BME280;38160;52.876;18.778;2023-02-17T17:59:37;99683.67;;;8.05;100.00
52185;BME280;38160;52.876;18.778;2023-02-17T18:02:13;99686.38;;;8.12;100.00
52185;BME280;38160;52.876;18.778;2023-02-17T18:04:54;99693.22;;;8.18;100.00
52185;BME280;38160;52.876;18.778;2023-02-17T18:07:31;99689.98;;;8.23;100.00
52185;BME280;38160;52.876;18.778;2023-02-17T18:10:16;99691.38;;;8.28;100.00
52185;BME280;38160;52.876;18.778;2023-02-17T18:12:56;99693.50;;;8.30;100.00
52185;BME280;38160;52.876;18.778;2023-02-17T18:15:37;99697.36;;;8.36;100.00
52185;BME280;38160;52.876;18.778;2023-02-17T18:18:18;99701.39;;;8.38;100.00
52185;BME280;38160;52.876;18.778;2023-02-17T18:20:59;99695.80;;;8.42;100.00
52185;BME280;38160;52.876;18.778;2023-02-17T18:23:35;99689.17;;;8.45;100.00
52185;BME280;38160;52.876;18.778;2023-02-17T18:26:11;99693.80;;;8.47;100.00
52185;BME280;38160;52.876;18.778;2023-02-17T18:28:54;99690.92;;;8.50;100.00
52185;BME280;38160;52.876;18.778;2023-02-17T18:31:31;99685.59;;;8.50;100.00
52185;BME280;38160;52.876;18.778;2023-02-17T18:34:12;99686.98;;;8.43;100.00
52185;BME280;38160;52.876;18.778;2023-02-17T18:36:48;99683.05;;;8.43;100.00
52185;BME280;38160;52.876;18.778;2023-02-17T18:39:28;99681.47;;;8.44;100.00
52185;BME280;38160;52.876;18.778;2023-02-17T18:42:05;99670.73;;;8.46;100.00
52185;BME280;38160;52.876;18.778;2023-02-17T18:44:41;99666.27;;;8.48;100.00
52185;BME280;38160;52.876;18.778;2023-02-17T18:47:18;99661.81;;;8.48;100.00
52185;BME280;38160;52.876;18.778;2023-02-17T18:49:54;99660.08;;;8.49;100.00
52185;BME280;38160;52.876;18.778;2023-02-17T18:52:31;99657.21;;;8.50;100.00
52185;BME280;38160;52.876;18.778;2023-02-17T18:55:08;99653.60;;;8.54;100.00
52185;BME280;38160;52.876;18.778;2023-02-17T18:57:44;99641.91;;;8.59;100.00
52185;BME280;38160;52.876;18.778;2023-02-17T19:00:23;99647.11;;;8.62;100.00
52185;BME280;38160;52.876;18.778;2023-02-17T19:03:01;99646.51;;;8.67;100.00
52185;BME280;38160;52.876;18.778;2023-02-17T19:05:40;99638.27;;;8.68;100.00
52185;BME280;38160;52.876;18.778;2023-02-17T19:08:16;99646.64;;;8.74;100.00
52185;BME280;38160;52.876;18.778;2023-02-17T19:10:52;99637.94;;;8.77;100.00
52185;BME280;38160;52.876;18.778;2023-02-17T19:13:28;99640.17;;;8.78;100.00
52185;BME280;38160;52.876;18.778;2023-02-17T19:16:07;99637.71;;;8.81;100.00
52185;BME280;38160;52.876;18.778;2023-02-17T19:18:47;99633.02;;;8.84;100.00
52185;BME280;38160;52.876;18.778;2023-02-17T19:21:23;99623.80;;;8.86;100.00
52185;BME280;38160;52.876;18.778;2023-02-17T19:23:59;99624.18;;;8.90;100.00
52185;BME280;38160;52.876;18.778;2023-02-17T19:26:36;99625.02;;;8.92;100.00
52185;BME280;38160;52.876;18.778;2023-02-17T19:29:13;99621.02;;;8.92;100.00
52185;BME280;38160;52.876;18.778;2023-02-17T19:31:49;99625.61;;;8.94;100.00
52185;BME280;38160;52.876;18.778;2023-02-17T19:34:26;99625.90;;;8.95;100.00
52185;BME280;38160;52.876;18.778;2023-02-17T19:37:02;99631.97;;;8.97;100.00
52185;BME280;38160;52.876;18.778;2023-02-17T19:39:38;99630.30;;;8.98;100.00
52185;BME280;38160;52.876;18.778;2023-02-17T19:42:15;99625.29;;;9.00;100.00
52185;BME280;38160;52.876;18.778;2023-02-17T19:44:56;99632.73;;;8.95;100.00
52185;BME280;38160;52.876;18.778;2023-02-17T19:47:38;99637.20;;;8.95;100.00
52185;BME280;38160;52.876;18.778;2023-02-17T19:52:51;99642.55;;;8.98;100.00
52185;BME280;38160;52.876;18.778;2023-02-17T19:55:27;99643.41;;;9.00;100.00
52185;BME280;38160;52.876;18.778;2023-02-17T19:58:03;99634.17;;;8.99;100.00
52185;BME280;38160;52.876;18.778;2023-02-17T20:00:39;99642.79;;;8.99;100.00
52185;BME280;38160;52.876;18.778;2023-02-17T20:03:15;99652.96;;;8.99;100.00
52185;BME280;38160;52.876;18.778;2023-02-17T20:05:51;99658.62;;;9.00;100.00
52185;BME280;38160;52.876;18.778;2023-02-17T20:36:31;99698.69;;;9.00;100.00
52185;BME280;38160;52.876;18.778;2023-02-17T20:39:07;99703.38;;;9.01;100.00
52185;BME280;38160;52.876;18.778;2023-02-17T20:41:43;99692.33;;;8.96;100.00
52185;BME280;38160;52.876;18.778;2023-02-17T20:44:19;99683.10;;;8.90;100.00
52185;BME280;38160;52.876;18.778;2023-02-17T20:46:56;99676.33;;;8.82;100.00
52185;BME280;38160;52.876;18.778;2023-02-17T20:49:33;99674.35;;;8.74;100.00
52185;BME280;38160;52.876;18.778;2023-02-17T20:52:33;99676.02;;;8.63;100.00
52185;BME280;38160;52.876;18.778;2023-02-17T21:36:31;99694.14;;;7.68;100.00
52185;BME280;38160;52.876;18.778;2023-02-17T21:39:07;99700.75;;;7.64;100.00
52185;BME280;38160;52.876;18.778;2023-02-17T22:25:15;99723.38;;;6.99;94.02
52185;BME280;38160;52.876;18.778;2023-02-17T22:28:18;99723.14;;;6.92;93.39
